Flughafen Wetterinformationen

LTBA 271650Z 15003KT 130V190 CAVOK 23/17 Q1015 NOSIG

VATSIM Feed

Card image cap

ATC Buchungen

Es wurde keine Position gebucht

Card image cap

Aktive Flugsicherung

Luftraum Name Rating Frequenz
LTAA_CTR Efe DAVUL C1 128.750
LTAA_N_CTR 1291734 S3 124.120

Blog

Read our latest news and get to know us better.

TRAILS OVER THE AEGEAN

Zwei großartige Städte. Zwei großartige Flughäfen. Ein großartiges Ereignis wartet darauf, dass Sie fliegen! Nehmen Sie am Freitag, den 2. Oktober von 16:00z bis 20:00z Uhr am Link-Event Athen – Istanbul teil und fliegen Sie Weiterlesen…

Back to Home

Unter diesem Motto haben das türkische vACC und Vatsim Deutschland einen echten Knaller für das Ende der Ferien in Nordrhein-Westfalen geplant. Im wirklichen Leben ist es die am meisten geflogene Passagierroute beider Flughäfen und jetzt Weiterlesen…